Time;durP1;ratioP1;P1;durP2;ratioP2;P2;SDS_P1;SDS_P2;PMS_P1;PMS_P2;Temp;Humidity;BMP_temperature;BMP_pressure;BME280_temperature;BME280_humidity;BME280_pressure;Samples;Min_cycle;Max_cycle;Signal;HPM_P1;HPM_P2
2022/02/26 00:00:09;;;;;;;13.93;4.40;;;4.60;5.60;;;;;;5030077;28;20191;-52
2022/02/26 00:02:34;;;;;;;8.02;5.20;;;4.60;9.90;;;;;;5030818;28;20269;-54
2022/02/26 00:05:00;;;;;;;11.07;4.30;;;4.60;7.00;;;;;;5031829;28;20697;-56
2022/02/26 00:07:25;;;;;;;5.77;4.23;;;4.60;6.20;;;;;;5025558;28;20248;-54
2022/02/26 00:09:51;;;;;;;12.60;4.67;;;4.70;1.00;;;;;;5031019;28;20195;-56
2022/02/26 00:12:16;;;;;;;13.90;5.00;;;4.70;1.00;;;;;;5030482;28;20241;-57
2022/02/26 00:14:42;;;;;;;7.73;4.17;;;4.80;1.00;;;;;;5032001;28;20175;-52
2022/02/26 00:17:08;;;;;;;9.83;3.90;;;4.70;1.00;;;;;;5031996;28;20776;-53
2022/02/26 00:19:34;;;;;;;9.80;4.10;;;4.70;1.00;;;;;;5031926;28;20241;-57
2022/02/26 00:22:00;;;;;;;5.03;3.70;;;4.70;1.00;;;;;;5031307;28;20226;-54
2022/02/26 00:24:25;;;;;;;7.00;4.00;;;4.70;1.00;;;;;;5031810;28;20603;-54
2022/02/26 00:26:51;;;;;;;6.10;4.37;;;4.80;1.00;;;;;;5031222;28;20447;-56
2022/02/26 00:29:17;;;;;;;5.40;3.70;;;4.80;1.00;;;;;;5031137;28;20183;-55
2022/02/26 00:31:43;;;;;;;8.18;4.15;;;4.70;1.00;;;;;;5027022;28;20183;-52
2022/02/26 00:34:08;;;;;;;9.87;4.47;;;4.70;1.00;;;;;;5031743;28;20195;-54
2022/02/26 00:36:34;;;;;;;7.40;4.20;;;4.70;1.00;;;;;;5034172;28;20182;-55
2022/02/26 00:39:00;;;;;;;7.00;4.83;;;4.70;1.00;;;;;;5034516;28;20631;-56
2022/02/26 00:41:28;;;;;;;10.47;4.70;;;4.70;1.00;;;;;;5042517;28;20641;-54
2022/02/26 00:43:54;;;;;;;8.90;4.45;;;4.70;1.00;;;;;;5040772;28;20199;-55
2022/02/26 00:46:19;;;;;;;12.90;4.77;;;4.70;1.00;;;;;;5049512;28;20544;-54
2022/02/26 00:51:29;;;;;;;7.43;3.70;;;4.70;1.00;;;;;;5043203;28;20190;-54
2022/02/26 00:53:55;;;;;;;7.37;3.93;;;4.80;1.00;;;;;;5037314;28;20223;-55
2022/02/26 00:56:20;;;;;;;8.80;4.00;;;4.80;1.00;;;;;;5038750;28;20264;-54
2022/02/26 00:58:46;;;;;;;8.53;4.13;;;4.80;1.00;;;;;;5030987;28;20191;-53
2022/02/26 01:01:11;;;;;;;10.97;4.20;;;4.80;1.00;;;;;;5043123;28;20221;-53
2022/02/26 01:03:37;;;;;;;14.00;4.00;;;4.90;1.00;;;;;;5036349;28;20209;-52
2022/02/26 01:06:03;;;;;;;10.17;4.20;;;4.90;1.00;;;;;;5028023;28;20232;-57
2022/02/26 01:08:29;;;;;;;6.70;3.97;;;4.90;1.00;;;;;;5044196;28;20182;-54
2022/02/26 01:10:54;;;;;;;8.60;4.03;;;4.80;1.00;;;;;;5030818;28;20189;-54
2022/02/26 01:13:20;;;;;;;7.07;3.40;;;4.80;1.00;;;;;;5047710;28;20261;-55
2022/02/26 01:15:46;;;;;;;6.80;3.93;;;4.90;1.00;;;;;;5034099;28;20626;-52
2022/02/26 01:18:11;;;;;;;6.87;3.43;;;4.90;1.00;;;;;;5032065;28;20720;-50
2022/02/26 01:20:37;;;;;;;8.00;4.03;;;4.90;1.00;;;;;;5036640;28;20191;-52
2022/02/26 01:23:02;;;;;;;8.33;3.17;;;4.90;1.00;;;;;;5040103;28;20214;-50
2022/02/26 01:25:28;;;;;;;8.63;3.70;;;4.90;1.00;;;;;;5029483;28;20609;-55
2022/02/26 01:27:54;;;;;;;11.40;3.40;;;4.90;1.00;;;;;;5042585;28;20186;-56
2022/02/26 01:30:19;;;;;;;8.90;3.30;;;5.00;1.00;;;;;;5026548;28;20295;-53
2022/02/26 01:32:45;;;;;;;7.70;3.70;;;4.90;1.00;;;;;;5037199;28;20187;-53
2022/02/26 01:35:11;;;;;;;5.90;3.87;;;5.00;1.00;;;;;;5031629;28;20622;-52
2022/02/26 01:37:36;;;;;;;10.17;4.13;;;5.00;1.00;;;;;;5034038;28;20193;-51
2022/02/26 01:40:04;;;;;;;9.80;3.20;;;5.00;1.00;;;;;;5044390;28;20202;-55
2022/02/26 01:42:30;;;;;;;8.32;3.83;;;5.10;1.00;;;;;;5037550;28;20191;-52
2022/02/26 01:44:55;;;;;;;8.03;3.30;;;5.10;1.00;;;;;;5039242;28;20222;-56
2022/02/26 01:47:21;;;;;;;9.50;3.70;;;5.10;1.00;;;;;;5039735;28;20179;-52
2022/02/26 01:49:48;;;;;;;15.10;4.10;;;5.00;1.00;;;;;;5031902;28;20185;-59
2022/02/26 01:52:17;;;;;;;5.45;2.83;;;5.10;1.00;;;;;;5033116;28;20194;-56
2022/02/26 01:54:44;;;;;;;11.15;3.38;;;5.10;1.00;;;;;;5040796;28;20231;-55
2022/02/26 01:57:10;;;;;;;7.47;3.40;;;5.10;1.00;;;;;;5032786;28;20202;-54
2022/02/26 01:59:36;;;;;;;11.33;3.27;;;5.10;1.00;;;;;;5044906;28;20716;-55
2022/02/26 02:02:02;;;;;;;9.20;3.73;;;5.10;1.00;;;;;;5032883;28;20309;-51
2022/02/26 02:04:28;;;;;;;6.88;2.95;;;5.10;1.00;;;;;;5035607;28;20523;-54
2022/02/26 02:06:55;;;;;;;5.33;2.93;;;5.10;1.00;;;;;;5022028;28;20195;-55
2022/02/26 02:09:20;;;;;;;8.85;2.97;;;5.10;1.00;;;;;;5031610;28;20186;-53
2022/02/26 02:11:46;;;;;;;11.73;3.47;;;5.00;1.00;;;;;;5029315;28;20270;-55
2022/02/26 02:14:12;;;;;;;15.33;3.80;;;5.10;1.00;;;;;;5030215;28;20680;-54
2022/02/26 02:16:37;;;;;;;9.20;3.10;;;5.10;1.00;;;;;;5042265;28;20847;-54
2022/02/26 02:19:07;;;;;;;12.80;4.60;;;5.10;1.00;;;;;;5034306;28;20187;-53
2022/02/26 02:21:33;;;;;;;10.65;3.90;;;5.00;1.00;;;;;;5036828;28;20621;-54
2022/02/26 02:23:58;;;;;;;6.73;3.10;;;5.10;1.00;;;;;;5033894;28;20194;-54
2022/02/26 02:26:26;;;;;;;10.73;3.50;;;5.10;1.00;;;;;;5027174;28;20217;-54
2022/02/26 02:28:51;;;;;;;11.07;4.00;;;5.20;1.00;;;;;;5040998;28;20231;-56
2022/02/26 02:31:18;;;;;;;10.37;2.93;;;5.20;1.00;;;;;;5036963;28;20191;-55
2022/02/26 02:33:46;;;;;;;9.88;4.43;;;5.10;1.00;;;;;;5017029;28;20601;-55
2022/02/26 02:36:12;;;;;;;8.93;3.50;;;5.10;1.00;;;;;;5029742;28;20596;-54
2022/02/26 02:38:38;;;;;;;11.27;4.15;;;5.10;1.00;;;;;;5029923;28;20187;-56
2022/02/26 02:41:05;;;;;;;13.95;4.53;;;5.10;1.00;;;;;;5029766;28;20210;-52
2022/02/26 02:43:31;;;;;;;9.70;3.00;;;5.20;1.00;;;;;;5029131;28;20281;-55
2022/02/26 02:45:57;;;;;;;10.95;3.10;;;5.20;1.00;;;;;;5028787;28;20203;-52
2022/02/26 02:48:23;;;;;;;12.45;3.53;;;5.20;1.00;;;;;;5030042;28;20209;-55
2022/02/26 02:50:49;;;;;;;12.53;3.80;;;5.20;1.00;;;;;;5027590;28;20645;-56
2022/02/26 02:53:16;;;;;;;11.40;3.53;;;5.20;1.00;;;;;;5029661;28;20476;-55
2022/02/26 02:55:43;;;;;;;6.78;3.70;;;5.20;1.00;;;;;;5032518;28;20493;-54
2022/02/26 02:58:09;;;;;;;10.10;4.03;;;5.20;1.00;;;;;;5032125;28;20229;-54
2022/02/26 03:00:34;;;;;;;11.30;3.90;;;5.10;1.00;;;;;;5033381;28;20629;-55
2022/02/26 03:03:00;;;;;;;10.37;3.33;;;5.10;1.00;;;;;;5032742;28;20181;-53
2022/02/26 03:05:27;;;;;;;9.05;3.40;;;5.10;1.00;;;;;;5031853;28;20199;-54
2022/02/26 03:07:53;;;;;;;8.50;3.67;;;5.00;1.00;;;;;;5032280;28;20193;-55
2022/02/26 03:10:20;;;;;;;7.80;3.40;;;5.10;1.00;;;;;;5033660;28;20865;-54
2022/02/26 03:12:51;;;;;;;8.20;3.20;;;5.10;1.00;;;;;;5033532;28;20410;-55
2022/02/26 03:15:18;;;;;;;8.60;3.20;;;5.10;1.00;;;;;;5032890;28;20194;-56
2022/02/26 03:17:43;;;;;;;9.00;3.38;;;5.10;1.00;;;;;;5030035;28;20714;-54
2022/02/26 03:20:09;;;;;;;12.13;3.10;;;5.10;99.90;;;;;;5032225;28;20273;-55
2022/02/26 03:22:35;;;;;;;12.80;3.90;;;5.10;99.90;;;;;;5033356;28;20175;-54
2022/02/26 03:25:01;;;;;;;11.53;3.67;;;5.10;99.90;;;;;;5032615;28;20554;-55
2022/02/26 03:27:26;;;;;;;9.85;3.33;;;5.10;1.00;;;;;;5032404;28;20171;-58
2022/02/26 03:29:52;;;;;;;9.97;3.67;;;5.10;1.00;;;;;;5033076;28;20242;-54
2022/02/26 03:32:18;;;;;;;10.43;3.97;;;5.10;1.00;;;;;;5032974;28;20159;-55
2022/02/26 03:34:44;;;;;;;17.50;4.23;;;5.10;99.90;;;;;;5032673;28;20197;-54
2022/02/26 03:37:10;;;;;;;9.57;3.72;;;5.00;99.90;;;;;;5032206;28;20475;-52
2022/02/26 03:39:35;;;;;;;10.87;4.63;;;5.00;99.90;;;;;;5037762;28;20178;-54
2022/02/26 03:42:06;;;;;;;6.67;3.43;;;5.10;99.90;;;;;;5038370;28;20191;-56
2022/02/26 03:44:32;;;;;;;11.00;4.43;;;5.00;99.90;;;;;;5030757;28;20207;-54
2022/02/26 03:46:59;;;;;;;10.95;4.13;;;5.00;99.90;;;;;;5032682;28;20183;-51
2022/02/26 03:49:25;;;;;;;6.93;4.10;;;5.00;99.90;;;;;;5032272;28;20531;-54
2022/02/26 03:51:50;;;;;;;8.73;4.35;;;4.90;99.90;;;;;;5032336;28;20183;-56
2022/02/26 03:54:16;;;;;;;8.77;4.03;;;4.90;99.90;;;;;;5030935;28;20572;-55
2022/02/26 03:56:43;;;;;;;9.02;3.65;;;4.90;99.90;;;;;;5036403;28;20696;-55
2022/02/26 03:59:09;;;;;;;9.90;4.45;;;4.90;99.90;;;;;;5034282;28;20183;-59
2022/02/26 04:01:35;;;;;;;9.73;3.67;;;5.00;99.90;;;;;;5034342;28;20186;-57
2022/02/26 04:04:00;;;;;;;10.00;4.03;;;5.00;99.90;;;;;;5041053;28;20741;-58
2022/02/26 04:06:26;;;;;;;12.70;4.30;;;5.00;99.90;;;;;;5030617;28;20206;-57
2022/02/26 04:08:52;;;;;;;13.23;3.70;;;4.90;99.90;;;;;;5034047;28;20209;-60
2022/02/26 04:11:17;;;;;;;11.17;4.50;;;4.90;99.90;;;;;;5031152;28;20245;-62
2022/02/26 04:13:43;;;;;;;14.67;4.00;;;4.90;99.90;;;;;;5031908;28;20308;-62
2022/02/26 04:16:09;;;;;;;7.07;4.13;;;4.90;99.90;;;;;;5027416;28;20232;-58
2022/02/26 04:18:34;;;;;;;10.20;4.27;;;4.90;99.90;;;;;;5033061;28;20946;-58
2022/02/26 04:21:00;;;;;;;12.47;3.83;;;5.00;99.90;;;;;;5030133;28;20476;-56
2022/02/26 04:23:26;;;;;;;9.70;3.97;;;5.00;99.90;;;;;;5031493;28;20650;-59
2022/02/26 04:25:51;;;;;;;5.50;3.60;;;5.00;99.90;;;;;;5032689;28;20221;-58
2022/02/26 04:28:17;;;;;;;7.50;3.50;;;5.00;99.90;;;;;;5030240;28;20269;-59
2022/02/26 04:30:43;;;;;;;7.10;3.23;;;5.10;99.90;;;;;;5044057;28;20356;-60
2022/02/26 04:33:09;;;;;;;7.27;3.67;;;5.10;99.90;;;;;;5031367;28;20974;-60
2022/02/26 04:35:36;;;;;;;13.60;4.30;;;5.00;99.90;;;;;;5043717;28;20798;-60
2022/02/26 04:38:02;;;;;;;12.85;3.60;;;5.00;99.90;;;;;;5040099;28;20757;-60
2022/02/26 04:40:28;;;;;;;11.00;3.80;;;5.00;53.70;;;;;;5051634;28;20190;-60
2022/02/26 04:42:54;;;;;;;13.67;3.80;;;5.00;99.90;;;;;;5031180;28;20438;-60
2022/02/26 04:45:19;;;;;;;10.80;4.00;;;5.00;99.90;;;;;;5043805;28;20213;-60
2022/02/26 04:47:45;;;;;;;9.37;3.57;;;5.00;99.90;;;;;;5031637;28;20425;-61
2022/02/26 04:50:13;;;;;;;12.73;4.00;;;4.90;99.90;;;;;;5046928;28;20653;-60
2022/02/26 04:52:39;;;;;;;10.27;4.00;;;4.90;99.90;;;;;;5047185;28;20187;-60
2022/02/26 04:55:05;;;;;;;7.93;3.70;;;5.00;99.90;;;;;;5039779;28;20274;-60
2022/02/26 04:57:31;;;;;;;7.47;3.50;;;4.90;99.90;;;;;;5030683;28;20211;-60
2022/02/26 04:59:57;;;;;;;8.90;4.28;;;4.90;99.90;;;;;;5038841;28;20640;-61
2022/02/26 05:02:23;;;;;;;9.43;3.63;;;5.00;98.10;;;;;;5034656;28;20197;-63
2022/02/26 05:04:49;;;;;;;8.73;3.40;;;5.00;1.00;;;;;;5049891;28;20210;-60
2022/02/26 05:07:15;;;;;;;11.60;3.17;;;5.00;1.00;;;;;;5032500;28;20202;-60
2022/02/26 05:09:44;;;;;;;12.93;3.20;;;5.00;1.00;;;;;;5043417;28;20527;-60
2022/02/26 05:12:10;;;;;;;6.43;3.55;;;5.00;1.00;;;;;;5030447;28;20566;-60
2022/02/26 05:14:35;;;;;;;9.83;3.27;;;5.00;1.00;;;;;;5030987;28;20245;-60
2022/02/26 05:17:02;;;;;;;9.60;2.90;;;5.00;1.00;;;;;;5038620;28;20269;-60
2022/02/26 05:19:27;;;;;;;8.20;2.65;;;5.00;1.00;;;;;;5033583;28;20191;-60
2022/02/26 05:21:53;;;;;;;6.47;2.80;;;5.00;1.00;;;;;;5030080;28;20218;-59
2022/02/26 05:24:18;;;;;;;7.60;3.03;;;5.00;1.00;;;;;;5036328;28;20194;-60
2022/02/26 05:26:44;;;;;;;6.00;3.13;;;4.90;1.00;;;;;;5040326;28;20182;-60
2022/02/26 05:29:10;;;;;;;7.33;2.90;;;4.90;1.00;;;;;;5048975;28;20179;-61
2022/02/26 05:31:35;;;;;;;5.60;2.90;;;4.90;1.00;;;;;;5036118;28;20186;-60
2022/02/26 05:34:01;;;;;;;5.67;3.20;;;4.90;1.00;;;;;;5032075;28;20269;-60
2022/02/26 05:36:27;;;;;;;9.07;3.20;;;4.90;1.00;;;;;;5038111;28;20281;-60
2022/02/26 05:38:52;;;;;;;8.50;3.30;;;4.90;1.00;;;;;;5032548;28;20430;-64
2022/02/26 05:41:18;;;;;;;5.67;3.30;;;4.90;1.00;;;;;;5036924;28;20197;-60
2022/02/26 05:43:43;;;;;;;7.57;3.73;;;4.90;1.00;;;;;;5050531;28;20193;-61
2022/02/26 05:46:09;;;;;;;7.10;3.57;;;4.80;1.00;;;;;;5035343;28;20233;-61
2022/02/26 05:48:34;;;;;;;7.27;3.70;;;4.90;1.00;;;;;;5040073;28;20261;-60
2022/02/26 05:51:01;;;;;;;8.17;3.73;;;4.80;1.00;;;;;;5038383;28;20186;-61
2022/02/26 05:53:28;;;;;;;5.93;3.25;;;4.80;1.00;;;;;;5030325;28;20222;-60
2022/02/26 05:55:53;;;;;;;7.93;3.70;;;4.80;1.00;;;;;;5029101;28;20214;-60
2022/02/26 05:58:19;;;;;;;7.83;3.90;;;4.80;1.00;;;;;;5029393;28;20223;-60
2022/02/26 06:00:45;;;;;;;8.63;4.10;;;4.90;1.00;;;;;;5030226;28;20198;-60
2022/02/26 06:03:10;;;;;;;6.87;4.37;;;4.80;1.00;;;;;;5030134;28;20206;-60
2022/02/26 06:05:36;;;;;;;6.93;3.77;;;4.80;1.00;;;;;;5023792;28;21084;-60
2022/02/26 06:08:01;;;;;;;9.60;4.00;;;4.80;99.90;;;;;;5038643;28;20875;-59
2022/02/26 06:10:27;;;;;;;9.67;4.23;;;4.80;99.90;;;;;;5034965;28;20210;-61
2022/02/26 06:12:53;;;;;;;7.00;4.50;;;4.70;99.90;;;;;;5019788;28;20187;-61
2022/02/26 06:15:18;;;;;;;8.53;4.73;;;4.60;99.90;;;;;;5028333;28;20198;-60
2022/02/26 06:17:44;;;;;;;11.67;4.20;;;4.60;1.00;;;;;;5029779;28;20175;-61
2022/02/26 06:20:12;;;;;;;9.97;4.30;;;4.60;1.00;;;;;;5028878;28;20258;-61
2022/02/26 06:22:38;;;;;;;10.48;4.20;;;4.50;1.00;;;;;;5030008;28;20676;-61
2022/02/26 06:25:04;;;;;;;10.27;5.23;;;4.40;1.00;;;;;;5029150;28;20255;-63
2022/02/26 06:27:29;;;;;;;5.72;4.68;;;4.30;1.00;;;;;;5031361;28;20232;-61
2022/02/26 06:29:55;;;;;;;9.97;4.43;;;4.30;1.00;;;;;;5034126;28;20182;-61
2022/02/26 06:32:20;;;;;;;9.53;4.77;;;4.30;1.00;;;;;;5032843;28;20198;-60
2022/02/26 06:34:47;;;;;;;8.97;5.07;;;4.30;1.00;;;;;;5033554;28;20232;-60
2022/02/26 06:37:12;;;;;;;8.65;5.10;;;4.30;1.00;;;;;;5030642;28;20183;-60
2022/02/26 06:39:38;;;;;;;13.47;5.07;;;4.30;1.00;;;;;;5037179;28;20179;-61
2022/02/26 06:42:04;;;;;;;16.70;5.37;;;4.40;1.00;;;;;;5045183;28;20197;-62
2022/02/26 06:44:29;;;;;;;8.30;4.77;;;4.40;1.00;;;;;;5039706;28;20201;-60
2022/02/26 06:46:55;;;;;;;6.73;4.50;;;4.30;1.00;;;;;;5040883;28;20235;-60
2022/02/26 06:49:21;;;;;;;8.30;4.17;;;4.40;1.00;;;;;;5035493;28;20432;-62
2022/02/26 06:51:46;;;;;;;12.10;5.20;;;4.40;1.00;;;;;;5028871;28;20191;-60
2022/02/26 06:54:12;;;;;;;9.50;4.33;;;4.40;1.00;;;;;;5047132;28;20229;-60
2022/02/26 06:56:38;;;;;;;10.63;4.83;;;4.40;1.00;;;;;;5052890;28;20297;-60
2022/02/26 06:59:04;;;;;;;9.87;4.70;;;4.50;1.00;;;;;;5051174;28;20427;-55
2022/02/26 07:01:29;;;;;;;15.33;4.40;;;4.50;1.00;;;;;;5036892;28;20191;-54
2022/02/26 07:03:55;;;;;;;11.43;4.50;;;4.50;1.00;;;;;;5047226;28;20261;-53
2022/02/26 07:06:20;;;;;;;7.73;4.70;;;4.50;1.00;;;;;;5047171;28;20198;-54
2022/02/26 07:08:46;;;;;;;7.83;4.40;;;4.50;1.00;;;;;;5038200;28;20222;-53
2022/02/26 07:11:12;;;;;;;10.13;5.77;;;4.50;1.00;;;;;;5048484;28;20225;-53
2022/02/26 07:13:37;;;;;;;11.33;5.80;;;4.40;1.00;;;;;;5040908;28;20183;-54
2022/02/26 07:16:03;;;;;;;10.40;5.40;;;4.30;1.00;;;;;;5044884;28;20191;-54
2022/02/26 07:18:29;;;;;;;10.20;5.43;;;4.40;1.00;;;;;;5031919;28;20190;-56
2022/02/26 07:20:54;;;;;;;9.47;5.20;;;4.40;1.90;;;;;;5036606;28;20190;-58
2022/02/26 07:23:20;;;;;;;13.63;5.90;;;4.40;6.60;;;;;;5028848;28;20305;-55
2022/02/26 07:25:46;;;;;;;18.73;6.17;;;4.50;1.00;;;;;;5027147;28;20217;-56
2022/02/26 07:28:15;;;;;;;12.80;4.83;;;4.50;1.00;;;;;;5042234;28;20194;-53
2022/02/26 07:30:42;;;;;;;12.10;5.10;;;4.50;1.00;;;;;;5026813;28;20194;-56
2022/02/26 07:33:08;;;;;;;12.57;6.03;;;4.50;1.00;;;;;;5026104;28;20179;-56
2022/02/26 07:35:35;;;;;;;13.13;5.90;;;4.50;1.00;;;;;;5027471;28;20194;-56
2022/02/26 07:38:02;;;;;;;10.88;5.43;;;4.60;1.00;;;;;;5033538;28;20198;-54
2022/02/26 07:40:28;;;;;;;13.88;5.47;;;4.50;1.00;;;;;;5038134;28;20645;-56
2022/02/26 07:42:53;;;;;;;10.13;5.07;;;4.60;1.00;;;;;;5030626;28;20203;-55
2022/02/26 07:45:19;;;;;;;15.97;5.50;;;4.70;2.30;;;;;;5030136;28;21017;-55
2022/02/26 07:47:45;;;;;;;9.27;5.80;;;4.70;1.00;;;;;;5040334;28;20701;-54
2022/02/26 07:50:10;;;;;;;8.70;5.50;;;4.80;1.30;;;;;;5028809;28;20486;-53
2022/02/26 07:52:36;;;;;;;14.27;5.67;;;4.70;10.40;;;;;;5032164;28;20659;-51
2022/02/26 07:55:04;;;;;;;11.27;5.57;;;4.60;25.20;;;;;;5022002;28;20282;-52
2022/02/26 07:57:30;;;;;;;14.90;5.93;;;4.60;31.60;;;;;;5021477;28;20187;-55
2022/02/26 07:59:56;;;;;;;15.95;5.88;;;4.60;35.60;;;;;;5035567;28;20186;-51
2022/02/26 08:02:22;;;;;;;14.40;6.13;;;4.60;44.80;;;;;;5027330;28;20222;-55
2022/02/26 08:04:49;;;;;;;14.83;6.33;;;4.70;47.50;;;;;;5018322;28;20207;-57
2022/02/26 08:07:15;;;;;;;10.70;5.22;;;4.60;50.50;;;;;;5026742;28;20205;-57
2022/02/26 08:09:41;;;;;;;11.50;5.60;;;4.60;59.10;;;;;;5032788;28;20728;-52
2022/02/26 08:12:07;;;;;;;11.77;5.50;;;4.60;61.30;;;;;;5033026;28;20433;-56
2022/02/26 08:14:37;;;;;;;13.70;6.20;;;4.60;74.80;;;;;;5023823;28;20186;-52
2022/02/26 08:17:03;;;;;;;16.05;5.70;;;4.60;81.60;;;;;;5026897;28;20188;-55
2022/02/26 08:19:28;;;;;;;16.02;6.00;;;4.60;86.80;;;;;;5028380;28;20189;-57
2022/02/26 08:21:54;;;;;;;18.00;6.27;;;4.60;88.40;;;;;;5030035;28;20187;-58
2022/02/26 08:24:19;;;;;;;12.97;6.90;;;4.70;87.40;;;;;;5021957;28;20199;-55
2022/02/26 08:26:45;;;;;;;12.03;6.10;;;4.70;90.40;;;;;;5039990;28;20184;-57
2022/02/26 08:29:12;;;;;;;17.23;6.47;;;4.70;92.20;;;;;;5034411;28;20811;-59
2022/02/26 08:31:37;;;;;;;15.18;5.40;;;4.70;91.30;;;;;;5030386;28;20183;-56
2022/02/26 08:34:03;;;;;;;14.40;6.10;;;4.70;86.50;;;;;;5032318;28;20222;-56
2022/02/26 08:36:28;;;;;;;14.33;6.00;;;4.80;85.70;;;;;;5022309;28;20274;-55
2022/02/26 08:38:54;;;;;;;9.90;5.93;;;4.80;87.80;;;;;;5018756;28;20599;-60
2022/02/26 08:41:20;;;;;;;14.20;5.80;;;4.80;86.50;;;;;;5030444;28;20182;-56
2022/02/26 08:43:45;;;;;;;13.20;6.00;;;4.80;85.70;;;;;;5030519;28;20740;-50
2022/02/26 08:46:11;;;;;;;20.13;7.63;;;4.90;91.70;;;;;;5030146;28;20198;-62
2022/02/26 08:48:36;;;;;;;20.10;6.10;;;4.90;93.90;;;;;;5028565;28;20206;-56
2022/02/26 08:51:02;;;;;;;11.37;5.87;;;4.90;94.70;;;;;;5030677;28;20175;-58
2022/02/26 08:53:27;;;;;;;14.50;6.30;;;5.00;92.20;;;;;;5028446;28;20231;-60
2022/02/26 08:55:53;;;;;;;11.33;5.10;;;5.00;83.20;;;;;;5028707;28;20628;-56
2022/02/26 08:58:20;;;;;;;13.13;6.33;;;5.00;69.20;;;;;;5029718;28;20179;-57
2022/02/26 09:00:46;;;;;;;14.02;6.60;;;5.00;66.30;;;;;;5029466;28;20179;-58
2022/02/26 09:03:12;;;;;;;19.27;7.65;;;5.00;75.20;;;;;;5029165;28;20179;-55
2022/02/26 09:05:37;;;;;;;17.27;7.20;;;5.00;72.70;;;;;;5029153;28;20583;-58
2022/02/26 09:08:03;;;;;;;18.17;9.40;;;5.00;63.30;;;;;;5029275;28;20178;-56
2022/02/26 09:10:29;;;;;;;17.90;6.83;;;5.00;68.70;;;;;;5029242;28;20172;-57
2022/02/26 09:12:54;;;;;;;14.37;7.10;;;5.00;75.00;;;;;;5029350;28;20278;-56
2022/02/26 09:15:20;;;;;;;12.63;6.80;;;5.00;71.90;;;;;;5028187;28;20202;-58
2022/02/26 09:17:45;;;;;;;18.57;6.73;;;5.00;71.80;;;;;;5031774;28;20187;-60
2022/02/26 09:20:12;;;;;;;20.03;6.03;;;5.00;63.10;;;;;;5011960;28;20180;-58
2022/02/26 09:22:39;;;;;;;15.13;6.32;;;5.10;60.50;;;;;;5026290;28;20191;-59
2022/02/26 09:25:05;;;;;;;13.68;6.05;;;5.00;61.50;;;;;;5035498;28;20984;-56
2022/02/26 09:27:30;;;;;;;10.55;5.53;;;5.10;60.60;;;;;;5033238;28;20188;-56
2022/02/26 09:29:57;;;;;;;10.03;5.60;;;5.10;57.90;;;;;;5037885;28;20193;-58
2022/02/26 09:32:24;;;;;;;11.93;6.25;;;5.10;61.30;;;;;;5023810;28;20198;-57
2022/02/26 09:34:50;;;;;;;13.88;5.90;;;5.20;66.30;;;;;;5049486;28;20273;-58
2022/02/26 09:37:15;;;;;;;16.70;5.43;;;5.30;63.50;;;;;;5044578;28;20286;-59
2022/02/26 09:39:41;;;;;;;15.00;5.43;;;5.30;51.90;;;;;;5049147;28;20198;-58
2022/02/26 09:42:07;;;;;;;14.70;6.23;;;5.30;38.40;;;;;;5043135;28;20192;-55
2022/02/26 09:44:33;;;;;;;14.60;5.22;;;5.30;44.30;;;;;;5029152;28;20625;-58
2022/02/26 09:46:58;;;;;;;11.30;4.90;;;5.40;40.50;;;;;;5043645;28;20155;-57
2022/02/26 09:49:25;;;;;;;12.70;5.47;;;5.60;38.20;;;;;;5009065;28;20179;-57
2022/02/26 09:51:50;;;;;;;13.02;5.10;;;5.60;34.90;;;;;;5008603;28;20222;-62
2022/02/26 09:54:17;;;;;;;10.47;5.27;;;5.80;33.40;;;;;;5008396;28;20224;-61
2022/02/26 09:56:43;;;;;;;6.85;4.70;;;5.80;29.80;;;;;;5008767;28;20205;-61
2022/02/26 09:59:11;;;;;;;22.13;6.63;;;6.00;26.60;;;;;;5018445;28;20187;-62
2022/02/26 10:01:58;;;;;;;10.20;5.20;;;6.00;14.20;;;;;;5029257;28;20217;-62
2022/02/26 10:04:24;;;;;;;9.65;4.35;;;6.00;7.20;;;;;;5029721;28;20186;-62
2022/02/26 10:06:49;;;;;;;12.97;5.47;;;6.00;6.70;;;;;;5028551;28;20657;-62
2022/02/26 10:09:15;;;;;;;11.50;5.13;;;6.00;7.30;;;;;;5026990;28;20479;-62
2022/02/26 10:11:42;;;;;;;14.30;5.60;;;6.00;13.80;;;;;;5029835;28;20182;-61
2022/02/26 10:14:10;;;;;;;11.90;5.25;;;6.00;7.00;;;;;;5029890;28;20178;-61
2022/02/26 10:16:41;;;;;;;14.32;4.90;;;6.00;5.00;;;;;;5024450;28;20566;-62
2022/02/26 10:19:07;;;;;;;13.55;5.22;;;6.10;9.40;;;;;;5033060;28;20194;-63
2022/02/26 10:21:34;;;;;;;13.50;4.70;;;6.30;6.20;;;;;;5006176;28;20233;-63
2022/02/26 10:23:59;;;;;;;10.77;5.65;;;6.40;1.00;;;;;;5033453;28;20193;-62
2022/02/26 10:26:26;;;;;;;11.70;4.70;;;6.80;1.00;;;;;;5023155;28;21787;-62
2022/02/26 10:29:17;;;;;;;9.60;4.13;;;6.90;1.00;;;;;;5014781;28;20217;-63
2022/02/26 10:31:51;;;;;;;8.83;3.43;;;7.10;1.00;;;;;;5020137;28;20441;-63
2022/02/26 10:34:38;;;;;;;9.88;3.92;;;7.10;1.00;;;;;;5020225;28;20437;-63
2022/02/26 10:37:08;;;;;;;8.37;3.73;;;7.00;1.00;;;;;;5022868;28;20273;-62
2022/02/26 10:39:45;;;;;;;6.33;3.30;;;7.20;1.00;;;;;;5025925;28;20472;-62
2022/02/26 10:42:21;;;;;;;7.40;3.17;;;7.20;1.00;;;;;;5022090;28;20449;-63
2022/02/26 10:45:08;;;;;;;7.87;4.37;;;7.50;1.00;;;;;;5030533;28;20525;-63
2022/02/26 10:47:36;;;;;;;6.67;3.37;;;7.70;1.00;;;;;;5032102;28;20425;-62
2022/02/26 10:50:13;;;;;;;8.60;3.20;;;7.90;99.90;;;;;;5030682;28;20443;-62
2022/02/26 10:52:52;;;;;;;6.77;2.93;;;7.90;99.90;;;;;;5025373;28;20485;-64
2022/02/26 10:55:17;;;;;;;4.97;3.03;;;7.90;99.90;;;;;;5023880;28;20421;-63
2022/02/26 10:57:44;;;;;;;5.60;3.20;;;8.10;1.00;;;;;;5026637;28;20440;-62
2022/02/26 11:00:10;;;;;;;6.70;4.00;;;8.20;43.70;;;;;;5028702;28;20198;-61
2022/02/26 11:02:36;;;;;;;7.23;3.30;;;8.30;1.00;;;;;;5025123;28;21345;-61
2022/02/26 11:05:01;;;;;;;5.17;3.20;;;8.50;99.90;;;;;;5033913;28;20464;-63
2022/02/26 11:07:28;;;;;;;7.40;3.60;;;8.50;99.90;;;;;;5027840;28;20591;-61
2022/02/26 11:09:54;;;;;;;6.60;3.20;;;8.50;1.00;;;;;;5031108;28;20190;-62
2022/02/26 11:12:24;;;;;;;9.67;4.03;;;8.50;99.90;;;;;;5018126;28;20441;-61
2022/02/26 11:14:59;;;;;;;5.27;3.37;;;8.40;99.90;;;;;;5038537;28;20416;-60
2022/02/26 11:17:28;;;;;;;12.33;4.00;;;8.20;1.00;;;;;;5033562;28;20424;-61
2022/02/26 11:19:58;;;;;;;7.07;3.70;;;8.10;99.90;;;;;;5031107;28;20836;-61
2022/02/26 11:22:25;;;;;;;4.77;3.43;;;8.10;99.90;;;;;;5035185;28;20816;-61
2022/02/26 11:24:53;;;;;;;7.47;3.60;;;8.10;52.80;;;;;;5024603;28;20465;-63
2022/02/26 11:27:21;;;;;;;8.20;3.50;;;8.20;99.90;;;;;;5027985;28;20453;-62
2022/02/26 11:29:46;;;;;;;9.90;4.40;;;8.20;99.90;;;;;;5029743;28;20520;-62
2022/02/26 11:32:15;;;;;;;8.80;3.80;;;8.10;99.90;;;;;;5030558;28;20533;-63
2022/02/26 11:34:41;;;;;;;9.53;4.37;;;8.20;1.00;;;;;;5030432;28;20438;-63
2022/02/26 11:37:12;;;;;;;6.07;3.60;;;8.30;99.90;;;;;;5030289;28;20437;-63
2022/02/26 11:39:47;;;;;;;7.20;3.50;;;8.30;1.00;;;;;;5031303;28;20177;-63
2022/02/26 11:42:19;;;;;;;7.33;3.40;;;8.10;99.90;;;;;;5031085;28;20459;-63
2022/02/26 11:44:47;;;;;;;8.17;3.90;;;8.00;99.90;;;;;;5030282;28;20465;-63
2022/02/26 11:47:15;;;;;;;8.37;3.70;;;7.90;1.00;;;;;;5031742;28;20414;-63
2022/02/26 11:50:14;;;;;;;6.00;3.27;;;7.80;99.90;;;;;;5029449;28;20444;-63
2022/02/26 11:53:07;;;;;;;15.23;5.00;;;7.60;56.30;;;;;;5026377;28;20934;-63
2022/02/26 11:55:36;;;;;;;5.80;3.40;;;7.40;1.00;;;;;;5027750;28;20503;-63
2022/02/26 11:58:10;;;;;;;10.40;4.23;;;7.30;15.70;;;;;;5029156;28;20797;-63
2022/02/26 12:00:38;;;;;;;5.23;3.27;;;7.30;1.00;;;;;;5025584;28;20435;-62
2022/02/26 12:03:41;;;;;;;5.83;3.10;;;7.10;1.00;;;;;;5019685;28;20433;-62
2022/02/26 12:06:12;;;;;;;9.73;3.58;;;7.00;1.00;;;;;;5017203;28;20461;-63
2022/02/26 12:08:53;;;;;;;10.23;4.53;;;7.00;1.00;;;;;;5028345;28;20183;-61
2022/02/26 12:11:33;;;;;;;9.00;3.87;;;7.00;1.00;;;;;;5029774;28;20429;-63
2022/02/26 12:14:05;;;;;;;6.23;3.53;;;7.10;1.00;;;;;;5029355;28;20506;-64
2022/02/26 12:16:36;;;;;;;5.43;3.30;;;7.20;1.00;;;;;;5025478;28;20422;-64
2022/02/26 12:19:05;;;;;;;10.60;4.27;;;7.30;1.00;;;;;;5033307;28;20434;-64
2022/02/26 12:21:37;;;;;;;4.50;2.77;;;7.50;1.00;;;;;;5030053;28;20438;-63
2022/02/26 12:24:04;;;;;;;8.83;4.13;;;7.50;1.00;;;;;;5029692;28;20430;-61
2022/02/26 12:26:43;;;;;;;6.87;3.70;;;7.60;1.00;;;;;;5031056;28;20466;-62
2022/02/26 12:29:09;;;;;;;5.37;3.40;;;7.60;99.90;;;;;;5029471;28;20418;-63
2022/02/26 12:31:52;;;;;;;5.90;3.73;;;7.50;99.90;;;;;;5024567;28;20932;-62
2022/02/26 12:34:19;;;;;;;7.20;3.47;;;7.50;84.10;;;;;;5019973;28;20437;-63
2022/02/26 12:37:09;;;;;;;6.80;3.40;;;7.40;99.90;;;;;;5027863;28;20538;-63
2022/02/26 12:39:50;;;;;;;6.93;3.30;;;7.40;1.00;;;;;;5026216;28;20496;-65
2022/02/26 12:42:24;;;;;;;7.07;4.30;;;7.30;1.00;;;;;;5019756;28;20432;-64
2022/02/26 12:44:53;;;;;;;4.67;3.10;;;7.20;99.90;;;;;;5012847;28;20466;-63
2022/02/26 12:47:19;;;;;;;8.93;3.60;;;7.30;4.80;;;;;;5022031;28;20443;-63
2022/02/26 12:49:44;;;;;;;12.27;5.80;;;7.40;99.90;;;;;;5034217;28;20418;-64
2022/02/26 12:52:11;;;;;;;5.23;3.80;;;7.30;1.00;;;;;;5030702;28;20722;-63
2022/02/26 12:54:39;;;;;;;9.03;4.53;;;7.30;1.00;;;;;;5039969;28;20233;-63
2022/02/26 12:57:05;;;;;;;6.53;3.53;;;7.20;9.00;;;;;;5034107;28;20472;-64
2022/02/26 12:59:33;;;;;;;9.17;4.50;;;7.10;1.00;;;;;;5049567;28;20501;-63